sensor_id;sensor_type;location;lat;lon;timestamp;P1;durP1;ratioP1;P2;durP2;ratioP2
20095;SDS011;10207;50.942;6.900;2023-03-31T00:00:25;5.45;;;0.90;;
20095;SDS011;10207;50.942;6.900;2023-03-31T00:02:51;4.68;;;0.82;;
20095;SDS011;10207;50.942;6.900;2023-03-31T00:05:18;3.70;;;0.80;;
20095;SDS011;10207;50.942;6.900;2023-03-31T00:07:46;4.10;;;1.10;;
20095;SDS011;10207;50.942;6.900;2023-03-31T00:10:13;11.75;;;1.55;;
20095;SDS011;10207;50.942;6.900;2023-03-31T00:12:39;9.00;;;1.38;;
20095;SDS011;10207;50.942;6.900;2023-03-31T00:15:05;7.28;;;1.77;;
20095;SDS011;10207;50.942;6.900;2023-03-31T00:17:32;5.70;;;1.80;;
20095;SDS011;10207;50.942;6.900;2023-03-31T00:19:58;7.07;;;1.10;;
20095;SDS011;10207;50.942;6.900;2023-03-31T00:22:29;6.35;;;1.40;;
20095;SDS011;10207;50.942;6.900;2023-03-31T00:24:55;4.20;;;1.08;;
20095;SDS011;10207;50.942;6.900;2023-03-31T00:27:21;6.10;;;1.20;;
20095;SDS011;10207;50.942;6.900;2023-03-31T00:29:47;3.25;;;0.85;;
20095;SDS011;10207;50.942;6.900;2023-03-31T00:32:15;7.85;;;1.13;;
20095;SDS011;10207;50.942;6.900;2023-03-31T00:34:41;5.10;;;1.20;;
20095;SDS011;10207;50.942;6.900;2023-03-31T00:37:07;6.88;;;1.40;;
20095;SDS011;10207;50.942;6.900;2023-03-31T00:39:34;4.15;;;1.02;;
20095;SDS011;10207;50.942;6.900;2023-03-31T00:42:02;5.13;;;1.05;;
20095;SDS011;10207;50.942;6.900;2023-03-31T00:44:29;6.30;;;1.90;;
20095;SDS011;10207;50.942;6.900;2023-03-31T00:47:01;10.32;;;1.30;;
20095;SDS011;10207;50.942;6.900;2023-03-31T00:49:28;6.93;;;1.67;;
20095;SDS011;10207;50.942;6.900;2023-03-31T00:51:57;7.78;;;1.50;;
20095;SDS011;10207;50.942;6.900;2023-03-31T00:54:24;9.77;;;1.55;;
20095;SDS011;10207;50.942;6.900;2023-03-31T00:56:52;8.65;;;2.35;;
20095;SDS011;10207;50.942;6.900;2023-03-31T00:59:20;6.78;;;1.40;;
20095;SDS011;10207;50.942;6.900;2023-03-31T01:01:49;7.70;;;1.70;;
20095;SDS011;10207;50.942;6.900;2023-03-31T01:04:15;7.03;;;1.30;;
20095;SDS011;10207;50.942;6.900;2023-03-31T01:06:43;4.72;;;1.15;;
20095;SDS011;10207;50.942;6.900;2023-03-31T01:09:14;8.88;;;1.30;;
20095;SDS011;10207;50.942;6.900;2023-03-31T01:11:42;6.15;;;1.50;;
20095;SDS011;10207;50.942;6.900;2023-03-31T01:14:09;4.63;;;1.08;;
20095;SDS011;10207;50.942;6.900;2023-03-31T01:16:35;6.50;;;1.25;;
20095;SDS011;10207;50.942;6.900;2023-03-31T01:19:06;6.78;;;1.55;;
20095;SDS011;10207;50.942;6.900;2023-03-31T01:26:53;5.45;;;1.35;;
20095;SDS011;10207;50.942;6.900;2023-03-31T01:42:16;5.82;;;1.17;;
20095;SDS011;10207;50.942;6.900;2023-03-31T01:44:59;8.65;;;1.70;;
20095;SDS011;10207;50.942;6.900;2023-03-31T01:47:29;8.07;;;1.20;;
20095;SDS011;10207;50.942;6.900;2023-03-31T01:50:02;5.00;;;1.65;;
20095;SDS011;10207;50.942;6.900;2023-03-31T01:52:46;5.13;;;1.33;;
20095;SDS011;10207;50.942;6.900;2023-03-31T01:55:15;2.17;;;0.88;;
20095;SDS011;10207;50.942;6.900;2023-03-31T01:58:05;6.57;;;1.80;;
20095;SDS011;10207;50.942;6.900;2023-03-31T02:00:35;7.78;;;1.38;;
20095;SDS011;10207;50.942;6.900;2023-03-31T02:03:07;8.60;;;2.50;;
20095;SDS011;10207;50.942;6.900;2023-03-31T02:05:36;7.15;;;1.35;;
20095;SDS011;10207;50.942;6.900;2023-03-31T02:08:10;9.68;;;1.65;;
20095;SDS011;10207;50.942;6.900;2023-03-31T02:10:38;9.73;;;1.63;;
20095;SDS011;10207;50.942;6.900;2023-03-31T02:13:05;15.68;;;4.63;;
20095;SDS011;10207;50.942;6.900;2023-03-31T02:15:33;6.63;;;1.40;;
20095;SDS011;10207;50.942;6.900;2023-03-31T02:18:01;6.13;;;2.22;;
20095;SDS011;10207;50.942;6.900;2023-03-31T02:20:30;8.73;;;1.90;;
20095;SDS011;10207;50.942;6.900;2023-03-31T02:22:57;10.77;;;2.25;;
20095;SDS011;10207;50.942;6.900;2023-03-31T02:25:58;8.38;;;2.28;;
20095;SDS011;10207;50.942;6.900;2023-03-31T02:28:22;10.20;;;2.35;;
20095;SDS011;10207;50.942;6.900;2023-03-31T02:33:34;11.80;;;1.90;;
20095;SDS011;10207;50.942;6.900;2023-03-31T02:36:00;9.88;;;2.38;;
20095;SDS011;10207;50.942;6.900;2023-03-31T02:38:26;7.25;;;2.00;;
20095;SDS011;10207;50.942;6.900;2023-03-31T02:40:53;18.17;;;2.55;;
20095;SDS011;10207;50.942;6.900;2023-03-31T02:43:19;10.48;;;2.00;;
20095;SDS011;10207;50.942;6.900;2023-03-31T02:45:48;12.10;;;2.42;;
20095;SDS011;10207;50.942;6.900;2023-03-31T02:48:25;7.07;;;1.50;;
20095;SDS011;10207;50.942;6.900;2023-03-31T02:53:27;17.88;;;3.70;;
20095;SDS011;10207;50.942;6.900;2023-03-31T03:11:50;9.93;;;1.95;;
20095;SDS011;10207;50.942;6.900;2023-03-31T03:16:47;11.55;;;1.75;;
20095;SDS011;10207;50.942;6.900;2023-03-31T03:19:19;8.80;;;1.80;;
20095;SDS011;10207;50.942;6.900;2023-03-31T03:21:46;9.18;;;2.22;;
20095;SDS011;10207;50.942;6.900;2023-03-31T03:24:13;6.25;;;1.75;;
20095;SDS011;10207;50.942;6.900;2023-03-31T03:26:40;11.85;;;1.70;;
20095;SDS011;10207;50.942;6.900;2023-03-31T03:29:06;7.85;;;1.80;;
20095;SDS011;10207;50.942;6.900;2023-03-31T03:31:32;7.13;;;1.60;;
20095;SDS011;10207;50.942;6.900;2023-03-31T03:33:58;7.38;;;1.77;;
20095;SDS011;10207;50.942;6.900;2023-03-31T03:36:24;4.30;;;1.48;;
20095;SDS011;10207;50.942;6.900;2023-03-31T03:38:50;4.68;;;1.02;;
20095;SDS011;10207;50.942;6.900;2023-03-31T03:41:16;8.80;;;1.30;;
20095;SDS011;10207;50.942;6.900;2023-03-31T03:43:42;6.82;;;1.52;;
20095;SDS011;10207;50.942;6.900;2023-03-31T03:46:07;4.00;;;0.73;;
20095;SDS011;10207;50.942;6.900;2023-03-31T03:48:34;5.82;;;0.93;;
20095;SDS011;10207;50.942;6.900;2023-03-31T03:51:00;7.35;;;1.00;;
20095;SDS011;10207;50.942;6.900;2023-03-31T03:53:26;10.15;;;2.03;;
20095;SDS011;10207;50.942;6.900;2023-03-31T03:55:52;9.57;;;1.10;;
20095;SDS011;10207;50.942;6.900;2023-03-31T03:58:18;9.93;;;1.83;;
20095;SDS011;10207;50.942;6.900;2023-03-31T04:00:44;6.18;;;1.50;;
20095;SDS011;10207;50.942;6.900;2023-03-31T04:03:11;5.53;;;1.08;;
20095;SDS011;10207;50.942;6.900;2023-03-31T04:05:37;4.40;;;1.02;;
20095;SDS011;10207;50.942;6.900;2023-03-31T04:08:03;7.53;;;1.00;;
20095;SDS011;10207;50.942;6.900;2023-03-31T04:10:30;4.38;;;1.10;;
20095;SDS011;10207;50.942;6.900;2023-03-31T04:12:56;6.55;;;1.75;;
20095;SDS011;10207;50.942;6.900;2023-03-31T04:15:22;6.65;;;1.00;;
20095;SDS011;10207;50.942;6.900;2023-03-31T04:17:48;4.35;;;0.90;;
20095;SDS011;10207;50.942;6.900;2023-03-31T04:20:15;2.63;;;0.65;;
20095;SDS011;10207;50.942;6.900;2023-03-31T04:22:42;2.38;;;0.73;;
20095;SDS011;10207;50.942;6.900;2023-03-31T04:25:12;4.03;;;0.60;;
20095;SDS011;10207;50.942;6.900;2023-03-31T04:27:45;3.63;;;0.60;;
20095;SDS011;10207;50.942;6.900;2023-03-31T04:30:15;4.53;;;0.82;;
20095;SDS011;10207;50.942;6.900;2023-03-31T04:32:51;2.83;;;0.88;;
20095;SDS011;10207;50.942;6.900;2023-03-31T04:35:18;4.88;;;1.45;;
20095;SDS011;10207;50.942;6.900;2023-03-31T04:37:46;8.65;;;1.10;;
20095;SDS011;10207;50.942;6.900;2023-03-31T04:40:12;6.90;;;1.20;;
20095;SDS011;10207;50.942;6.900;2023-03-31T04:42:38;3.88;;;0.77;;
20095;SDS011;10207;50.942;6.900;2023-03-31T04:45:04;6.15;;;0.93;;
20095;SDS011;10207;50.942;6.900;2023-03-31T04:47:30;4.95;;;1.33;;
20095;SDS011;10207;50.942;6.900;2023-03-31T04:49:56;4.63;;;1.00;;
20095;SDS011;10207;50.942;6.900;2023-03-31T04:52:22;7.25;;;1.20;;
20095;SDS011;10207;50.942;6.900;2023-03-31T04:54:48;5.47;;;1.08;;
20095;SDS011;10207;50.942;6.900;2023-03-31T04:57:14;4.53;;;1.33;;
20095;SDS011;10207;50.942;6.900;2023-03-31T04:59:40;5.85;;;0.93;;
20095;SDS011;10207;50.942;6.900;2023-03-31T05:02:06;5.15;;;0.88;;
20095;SDS011;10207;50.942;6.900;2023-03-31T05:04:32;3.22;;;1.17;;
20095;SDS011;10207;50.942;6.900;2023-03-31T05:06:58;1.83;;;0.70;;
20095;SDS011;10207;50.942;6.900;2023-03-31T05:09:24;3.20;;;1.05;;
20095;SDS011;10207;50.942;6.900;2023-03-31T05:11:50;3.17;;;0.90;;
20095;SDS011;10207;50.942;6.900;2023-03-31T05:14:16;2.03;;;0.80;;
20095;SDS011;10207;50.942;6.900;2023-03-31T05:16:42;3.42;;;0.80;;
20095;SDS011;10207;50.942;6.900;2023-03-31T05:19:08;2.08;;;0.80;;
20095;SDS011;10207;50.942;6.900;2023-03-31T05:21:34;4.43;;;1.20;;
20095;SDS011;10207;50.942;6.900;2023-03-31T05:24:00;4.07;;;0.82;;
20095;SDS011;10207;50.942;6.900;2023-03-31T05:26:26;5.25;;;0.80;;
20095;SDS011;10207;50.942;6.900;2023-03-31T05:28:52;5.50;;;0.80;;
20095;SDS011;10207;50.942;6.900;2023-03-31T05:31:18;4.85;;;0.70;;
20095;SDS011;10207;50.942;6.900;2023-03-31T05:33:44;4.72;;;1.30;;
20095;SDS011;10207;50.942;6.900;2023-03-31T05:36:11;3.70;;;0.65;;
20095;SDS011;10207;50.942;6.900;2023-03-31T05:38:38;3.65;;;0.60;;
20095;SDS011;10207;50.942;6.900;2023-03-31T05:41:04;2.33;;;0.70;;
20095;SDS011;10207;50.942;6.900;2023-03-31T05:43:31;2.55;;;0.80;;
20095;SDS011;10207;50.942;6.900;2023-03-31T05:45:57;3.13;;;0.60;;
20095;SDS011;10207;50.942;6.900;2023-03-31T05:48:23;3.20;;;1.02;;
20095;SDS011;10207;50.942;6.900;2023-03-31T05:50:49;4.55;;;0.70;;
20095;SDS011;10207;50.942;6.900;2023-03-31T05:53:15;2.17;;;0.52;;
20095;SDS011;10207;50.942;6.900;2023-03-31T05:55:41;3.13;;;0.40;;
20095;SDS011;10207;50.942;6.900;2023-03-31T05:58:07;1.25;;;0.60;;
20095;SDS011;10207;50.942;6.900;2023-03-31T06:00:33;4.10;;;0.65;;
20095;SDS011;10207;50.942;6.900;2023-03-31T06:03:00;0.98;;;0.60;;
20095;SDS011;10207;50.942;6.900;2023-03-31T06:05:26;0.73;;;0.35;;
20095;SDS011;10207;50.942;6.900;2023-03-31T06:07:52;1.20;;;0.50;;
20095;SDS011;10207;50.942;6.900;2023-03-31T06:10:18;0.75;;;0.50;;
20095;SDS011;10207;50.942;6.900;2023-03-31T06:12:46;4.97;;;0.60;;
20095;SDS011;10207;50.942;6.900;2023-03-31T06:15:12;2.25;;;0.60;;
20095;SDS011;10207;50.942;6.900;2023-03-31T06:17:38;3.97;;;0.50;;
20095;SDS011;10207;50.942;6.900;2023-03-31T06:20:04;0.52;;;0.30;;
20095;SDS011;10207;50.942;6.900;2023-03-31T06:22:31;1.42;;;0.40;;
20095;SDS011;10207;50.942;6.900;2023-03-31T06:24:57;0.75;;;0.20;;
20095;SDS011;10207;50.942;6.900;2023-03-31T06:27:23;0.98;;;0.55;;
20095;SDS011;10207;50.942;6.900;2023-03-31T06:29:49;1.67;;;0.40;;
20095;SDS011;10207;50.942;6.900;2023-03-31T06:32:15;0.88;;;0.57;;
20095;SDS011;10207;50.942;6.900;2023-03-31T06:34:41;3.78;;;0.80;;
20095;SDS011;10207;50.942;6.900;2023-03-31T06:37:07;0.40;;;0.20;;
20095;SDS011;10207;50.942;6.900;2023-03-31T06:39:33;1.15;;;0.17;;
20095;SDS011;10207;50.942;6.900;2023-03-31T06:41:59;1.02;;;0.43;;
20095;SDS011;10207;50.942;6.900;2023-03-31T06:44:27;0.90;;;0.40;;
20095;SDS011;10207;50.942;6.900;2023-03-31T06:46:52;2.22;;;0.50;;
20095;SDS011;10207;50.942;6.900;2023-03-31T06:49:19;2.83;;;0.35;;
20095;SDS011;10207;50.942;6.900;2023-03-31T06:51:45;1.00;;;0.15;;
20095;SDS011;10207;50.942;6.900;2023-03-31T06:54:11;0.73;;;0.20;;
20095;SDS011;10207;50.942;6.900;2023-03-31T06:56:37;1.92;;;0.20;;
20095;SDS011;10207;50.942;6.900;2023-03-31T06:59:03;0.93;;;0.25;;
20095;SDS011;10207;50.942;6.900;2023-03-31T07:01:29;3.17;;;0.47;;
20095;SDS011;10207;50.942;6.900;2023-03-31T07:03:56;1.27;;;0.50;;
20095;SDS011;10207;50.942;6.900;2023-03-31T07:06:22;0.80;;;0.30;;
20095;SDS011;10207;50.942;6.900;2023-03-31T07:08:48;0.85;;;0.20;;
20095;SDS011;10207;50.942;6.900;2023-03-31T07:11:14;1.90;;;0.40;;
20095;SDS011;10207;50.942;6.900;2023-03-31T07:13:41;1.40;;;0.40;;
20095;SDS011;10207;50.942;6.900;2023-03-31T07:16:06;3.28;;;0.40;;
20095;SDS011;10207;50.942;6.900;2023-03-31T07:18:33;0.10;;;0.10;;
20095;SDS011;10207;50.942;6.900;2023-03-31T07:20:59;1.48;;;0.20;;
20095;SDS011;10207;50.942;6.900;2023-03-31T07:23:25;1.33;;;0.30;;
20095;SDS011;10207;50.942;6.900;2023-03-31T07:25:52;2.40;;;0.35;;
20095;SDS011;10207;50.942;6.900;2023-03-31T07:28:18;1.63;;;0.50;;
20095;SDS011;10207;50.942;6.900;2023-03-31T07:30:44;0.80;;;0.17;;
20095;SDS011;10207;50.942;6.900;2023-03-31T07:33:10;0.60;;;0.28;;
20095;SDS011;10207;50.942;6.900;2023-03-31T07:35:36;0.55;;;0.30;;
20095;SDS011;10207;50.942;6.900;2023-03-31T07:38:03;0.70;;;0.20;;
20095;SDS011;10207;50.942;6.900;2023-03-31T07:40:28;0.22;;;0.22;;
20095;SDS011;10207;50.942;6.900;2023-03-31T07:42:55;0.70;;;0.30;;
20095;SDS011;10207;50.942;6.900;2023-03-31T07:45:23;4.63;;;0.40;;
20095;SDS011;10207;50.942;6.900;2023-03-31T07:47:49;0.65;;;0.25;;
20095;SDS011;10207;50.942;6.900;2023-03-31T07:50:15;0.57;;;0.28;;
20095;SDS011;10207;50.942;6.900;2023-03-31T07:52:42;1.27;;;0.35;;
20095;SDS011;10207;50.942;6.900;2023-03-31T07:55:08;2.38;;;0.40;;
20095;SDS011;10207;50.942;6.900;2023-03-31T07:57:34;3.28;;;0.30;;
20095;SDS011;10207;50.942;6.900;2023-03-31T08:00:00;1.65;;;0.32;;
20095;SDS011;10207;50.942;6.900;2023-03-31T08:02:38;1.13;;;0.40;;
20095;SDS011;10207;50.942;6.900;2023-03-31T08:05:04;7.80;;;0.47;;
20095;SDS011;10207;50.942;6.900;2023-03-31T08:07:34;1.33;;;0.25;;
20095;SDS011;10207;50.942;6.900;2023-03-31T08:10:01;2.15;;;0.55;;
20095;SDS011;10207;50.942;6.900;2023-03-31T08:12:27;3.42;;;0.70;;
20095;SDS011;10207;50.942;6.900;2023-03-31T08:14:53;2.70;;;0.60;;
20095;SDS011;10207;50.942;6.900;2023-03-31T08:17:19;3.17;;;0.52;;
20095;SDS011;10207;50.942;6.900;2023-03-31T08:19:45;1.83;;;0.60;;
20095;SDS011;10207;50.942;6.900;2023-03-31T08:22:11;2.58;;;0.65;;
20095;SDS011;10207;50.942;6.900;2023-03-31T08:24:37;3.38;;;1.10;;
20095;SDS011;10207;50.942;6.900;2023-03-31T08:27:03;2.35;;;0.50;;
20095;SDS011;10207;50.942;6.900;2023-03-31T08:29:29;5.68;;;0.90;;
20095;SDS011;10207;50.942;6.900;2023-03-31T08:31:55;4.05;;;1.00;;
20095;SDS011;10207;50.942;6.900;2023-03-31T08:34:21;2.95;;;0.73;;
20095;SDS011;10207;50.942;6.900;2023-03-31T08:36:47;4.28;;;0.85;;
20095;SDS011;10207;50.942;6.900;2023-03-31T08:39:13;7.47;;;1.55;;
20095;SDS011;10207;50.942;6.900;2023-03-31T08:46:56;3.55;;;0.85;;
20095;SDS011;10207;50.942;6.900;2023-03-31T08:49:22;2.83;;;0.75;;
20095;SDS011;10207;50.942;6.900;2023-03-31T08:51:50;4.20;;;0.88;;
20095;SDS011;10207;50.942;6.900;2023-03-31T08:54:33;5.32;;;0.93;;
20095;SDS011;10207;50.942;6.900;2023-03-31T08:57:01;2.63;;;0.50;;
20095;SDS011;10207;50.942;6.900;2023-03-31T08:59:31;3.22;;;0.65;;
20095;SDS011;10207;50.942;6.900;2023-03-31T09:02:03;3.85;;;0.70;;
20095;SDS011;10207;50.942;6.900;2023-03-31T09:15:16;4.20;;;0.85;;
20095;SDS011;10207;50.942;6.900;2023-03-31T09:17:44;2.65;;;1.10;;
20095;SDS011;10207;50.942;6.900;2023-03-31T09:22:39;4.03;;;0.90;;
20095;SDS011;10207;50.942;6.900;2023-03-31T09:25:09;7.78;;;1.48;;
20095;SDS011;10207;50.942;6.900;2023-03-31T09:27:38;6.22;;;1.08;;
20095;SDS011;10207;50.942;6.900;2023-03-31T09:32:40;5.95;;;1.08;;
20095;SDS011;10207;50.942;6.900;2023-03-31T09:35:20;8.52;;;2.00;;
20095;SDS011;10207;50.942;6.900;2023-03-31T09:37:47;10.35;;;1.90;;
20095;SDS011;10207;50.942;6.900;2023-03-31T09:40:17;5.32;;;1.40;;
20095;SDS011;10207;50.942;6.900;2023-03-31T09:42:44;7.32;;;1.20;;
20095;SDS011;10207;50.942;6.900;2023-03-31T09:45:15;4.28;;;1.13;;
20095;SDS011;10207;50.942;6.900;2023-03-31T09:47:44;7.43;;;2.88;;
20095;SDS011;10207;50.942;6.900;2023-03-31T09:50:11;7.05;;;1.30;;
20095;SDS011;10207;50.942;6.900;2023-03-31T09:52:56;6.07;;;0.88;;
20095;SDS011;10207;50.942;6.900;2023-03-31T09:58:10;5.00;;;1.10;;
20095;SDS011;10207;50.942;6.900;2023-03-31T10:00:41;10.98;;;1.63;;
20095;SDS011;10207;50.942;6.900;2023-03-31T10:03:09;7.22;;;1.15;;
20095;SDS011;10207;50.942;6.900;2023-03-31T10:05:38;5.95;;;1.20;;
20095;SDS011;10207;50.942;6.900;2023-03-31T10:10:53;5.07;;;1.30;;
20095;SDS011;10207;50.942;6.900;2023-03-31T10:13:34;8.18;;;1.23;;
20095;SDS011;10207;50.942;6.900;2023-03-31T10:16:03;8.65;;;1.42;;
20095;SDS011;10207;50.942;6.900;2023-03-31T10:18:38;8.77;;;2.08;;
20095;SDS011;10207;50.942;6.900;2023-03-31T10:21:06;9.20;;;2.20;;
20095;SDS011;10207;50.942;6.900;2023-03-31T10:23:33;10.00;;;1.85;;
20095;SDS011;10207;50.942;6.900;2023-03-31T10:26:00;4.18;;;1.17;;
20095;SDS011;10207;50.942;6.900;2023-03-31T10:28:27;9.75;;;1.20;;
20095;SDS011;10207;50.942;6.900;2023-03-31T10:30:56;6.88;;;1.30;;
20095;SDS011;10207;50.942;6.900;2023-03-31T10:33:26;7.53;;;1.85;;
20095;SDS011;10207;50.942;6.900;2023-03-31T10:35:54;5.15;;;1.33;;
20095;SDS011;10207;50.942;6.900;2023-03-31T10:38:23;3.60;;;0.95;;
20095;SDS011;10207;50.942;6.900;2023-03-31T10:40:52;4.25;;;1.13;;
20095;SDS011;10207;50.942;6.900;2023-03-31T10:43:20;6.45;;;1.38;;
20095;SDS011;10207;50.942;6.900;2023-03-31T10:45:47;5.32;;;1.00;;
20095;SDS011;10207;50.942;6.900;2023-03-31T10:48:24;7.10;;;1.80;;
20095;SDS011;10207;50.942;6.900;2023-03-31T10:50:51;5.85;;;1.00;;
20095;SDS011;10207;50.942;6.900;2023-03-31T10:53:17;5.80;;;1.50;;
20095;SDS011;10207;50.942;6.900;2023-03-31T11:00:57;4.65;;;1.65;;
20095;SDS011;10207;50.942;6.900;2023-03-31T11:06:16;5.00;;;0.80;;
20095;SDS011;10207;50.942;6.900;2023-03-31T11:08:55;3.33;;;0.98;;
20095;SDS011;10207;50.942;6.900;2023-03-31T11:12:10;4.53;;;1.00;;
20095;SDS011;10207;50.942;6.900;2023-03-31T11:14:18;4.65;;;1.17;;
20095;SDS011;10207;50.942;6.900;2023-03-31T11:16:50;3.50;;;1.00;;
20095;SDS011;10207;50.942;6.900;2023-03-31T11:19:23;2.85;;;0.68;;
20095;SDS011;10207;50.942;6.900;2023-03-31T11:21:57;5.60;;;1.17;;
20095;SDS011;10207;50.942;6.900;2023-03-31T11:24:31;5.28;;;1.02;;
20095;SDS011;10207;50.942;6.900;2023-03-31T11:34:38;6.43;;;1.00;;
20095;SDS011;10207;50.942;6.900;2023-03-31T11:42:25;8.60;;;1.10;;
20095;SDS011;10207;50.942;6.900;2023-03-31T11:44:53;9.20;;;1.10;;
20095;SDS011;10207;50.942;6.900;2023-03-31T11:47:23;7.50;;;1.17;;
20095;SDS011;10207;50.942;6.900;2023-03-31T11:49:51;10.43;;;1.60;;
20095;SDS011;10207;50.942;6.900;2023-03-31T11:52:41;5.80;;;1.45;;
20095;SDS011;10207;50.942;6.900;2023-03-31T12:00:19;8.70;;;1.40;;
20095;SDS011;10207;50.942;6.900;2023-03-31T12:05:11;8.25;;;1.27;;
20095;SDS011;10207;50.942;6.900;2023-03-31T12:10:21;10.80;;;1.20;;
20095;SDS011;10207;50.942;6.900;2023-03-31T12:12:49;6.80;;;1.65;;
20095;SDS011;10207;50.942;6.900;2023-03-31T12:15:22;7.00;;;1.52;;
20095;SDS011;10207;50.942;6.900;2023-03-31T12:17:52;9.75;;;1.80;;
20095;SDS011;10207;50.942;6.900;2023-03-31T12:20:25;12.43;;;1.73;;
20095;SDS011;10207;50.942;6.900;2023-03-31T12:22:54;7.57;;;1.80;;
20095;SDS011;10207;50.942;6.900;2023-03-31T12:25:22;10.48;;;1.65;;
20095;SDS011;10207;50.942;6.900;2023-03-31T12:27:50;5.25;;;1.30;;
20095;SDS011;10207;50.942;6.900;2023-03-31T12:30:21;5.38;;;1.02;;
20095;SDS011;10207;50.942;6.900;2023-03-31T12:32:54;4.97;;;0.93;;
20095;SDS011;10207;50.942;6.900;2023-03-31T12:35:22;7.95;;;1.73;;
20095;SDS011;10207;50.942;6.900;2023-03-31T12:37:55;8.65;;;1.95;;
20095;SDS011;10207;50.942;6.900;2023-03-31T12:48:02;8.15;;;1.98;;
20095;SDS011;10207;50.942;6.900;2023-03-31T12:50:31;6.82;;;1.25;;
20095;SDS011;10207;50.942;6.900;2023-03-31T12:55:37;5.30;;;2.08;;
20095;SDS011;10207;50.942;6.900;2023-03-31T13:03:35;7.88;;;1.20;;
20095;SDS011;10207;50.942;6.900;2023-03-31T13:06:02;7.65;;;1.30;;
20095;SDS011;10207;50.942;6.900;2023-03-31T13:11:13;6.88;;;1.80;;
20095;SDS011;10207;50.942;6.900;2023-03-31T13:13:40;5.20;;;1.20;;
20095;SDS011;10207;50.942;6.900;2023-03-31T13:16:09;7.78;;;1.52;;
20095;SDS011;10207;50.942;6.900;2023-03-31T13:18:35;8.35;;;1.23;;
20095;SDS011;10207;50.942;6.900;2023-03-31T13:21:02;5.47;;;1.30;;
20095;SDS011;10207;50.942;6.900;2023-03-31T13:23:30;6.57;;;1.42;;
20095;SDS011;10207;50.942;6.900;2023-03-31T13:25:57;6.20;;;1.10;;
20095;SDS011;10207;50.942;6.900;2023-03-31T13:33:20;4.32;;;1.10;;
20095;SDS011;10207;50.942;6.900;2023-03-31T13:38:40;7.35;;;1.25;;
20095;SDS011;10207;50.942;6.900;2023-03-31T13:51:24;6.47;;;1.02;;
20095;SDS011;10207;50.942;6.900;2023-03-31T13:56:34;8.07;;;1.23;;
20095;SDS011;10207;50.942;6.900;2023-03-31T13:59:07;7.13;;;1.83;;
20095;SDS011;10207;50.942;6.900;2023-03-31T14:01:39;4.88;;;0.90;;
20095;SDS011;10207;50.942;6.900;2023-03-31T14:07:04;5.65;;;0.90;;
20095;SDS011;10207;50.942;6.900;2023-03-31T14:09:33;3.13;;;0.88;;
20095;SDS011;10207;50.942;6.900;2023-03-31T14:12:00;5.93;;;0.65;;
20095;SDS011;10207;50.942;6.900;2023-03-31T14:14:26;3.45;;;0.68;;
20095;SDS011;10207;50.942;6.900;2023-03-31T14:16:58;2.70;;;0.80;;
20095;SDS011;10207;50.942;6.900;2023-03-31T14:21:57;2.85;;;0.60;;
20095;SDS011;10207;50.942;6.900;2023-03-31T14:24:29;2.78;;;0.60;;
20095;SDS011;10207;50.942;6.900;2023-03-31T14:37:58;2.42;;;1.20;;
20095;SDS011;10207;50.942;6.900;2023-03-31T14:40:25;6.28;;;0.90;;
20095;SDS011;10207;50.942;6.900;2023-03-31T14:42:51;3.92;;;0.68;;
20095;SDS011;10207;50.942;6.900;2023-03-31T14:45:22;3.45;;;0.80;;
20095;SDS011;10207;50.942;6.900;2023-03-31T14:47:56;3.00;;;0.40;;
20095;SDS011;10207;50.942;6.900;2023-03-31T14:50:27;3.63;;;0.90;;
20095;SDS011;10207;50.942;6.900;2023-03-31T14:52:53;2.63;;;0.63;;
20095;SDS011;10207;50.942;6.900;2023-03-31T14:55:21;2.50;;;0.63;;
20095;SDS011;10207;50.942;6.900;2023-03-31T14:57:48;3.00;;;0.60;;
20095;SDS011;10207;50.942;6.900;2023-03-31T15:00:18;3.55;;;0.70;;
20095;SDS011;10207;50.942;6.900;2023-03-31T15:02:45;1.67;;;0.68;;
20095;SDS011;10207;50.942;6.900;2023-03-31T15:08:13;4.13;;;0.70;;
20095;SDS011;10207;50.942;6.900;2023-03-31T15:10:39;3.13;;;1.13;;
20095;SDS011;10207;50.942;6.900;2023-03-31T15:13:08;5.57;;;1.27;;
20095;SDS011;10207;50.942;6.900;2023-03-31T15:15:34;3.33;;;0.82;;
20095;SDS011;10207;50.942;6.900;2023-03-31T15:18:00;6.18;;;1.38;;
20095;SDS011;10207;50.942;6.900;2023-03-31T15:20:36;3.00;;;0.80;;
20095;SDS011;10207;50.942;6.900;2023-03-31T15:23:03;4.53;;;1.08;;
20095;SDS011;10207;50.942;6.900;2023-03-31T15:25:38;5.88;;;0.80;;
20095;SDS011;10207;50.942;6.900;2023-03-31T15:28:07;2.97;;;0.52;;
20095;SDS011;10207;50.942;6.900;2023-03-31T15:30:34;3.42;;;0.65;;
20095;SDS011;10207;50.942;6.900;2023-03-31T15:33:00;2.30;;;0.80;;
20095;SDS011;10207;50.942;6.900;2023-03-31T15:35:30;7.10;;;1.13;;
20095;SDS011;10207;50.942;6.900;2023-03-31T15:37:57;4.32;;;0.80;;
20095;SDS011;10207;50.942;6.900;2023-03-31T15:40:24;4.32;;;1.25;;
20095;SDS011;10207;50.942;6.900;2023-03-31T15:43:13;6.00;;;1.13;;
20095;SDS011;10207;50.942;6.900;2023-03-31T15:45:45;3.58;;;1.40;;
20095;SDS011;10207;50.942;6.900;2023-03-31T15:48:15;4.85;;;1.10;;
20095;SDS011;10207;50.942;6.900;2023-03-31T15:50:41;4.15;;;0.70;;
20095;SDS011;10207;50.942;6.900;2023-03-31T15:53:24;6.07;;;0.85;;
20095;SDS011;10207;50.942;6.900;2023-03-31T15:55:52;8.48;;;1.10;;
20095;SDS011;10207;50.942;6.900;2023-03-31T15:58:18;4.20;;;0.70;;
20095;SDS011;10207;50.942;6.900;2023-03-31T16:00:51;1.83;;;0.65;;
20095;SDS011;10207;50.942;6.900;2023-03-31T16:03:28;2.28;;;0.40;;
20095;SDS011;10207;50.942;6.900;2023-03-31T16:06:00;4.72;;;0.63;;
20095;SDS011;10207;50.942;6.900;2023-03-31T16:08:37;7.25;;;0.70;;
20095;SDS011;10207;50.942;6.900;2023-03-31T16:11:05;3.17;;;0.60;;
20095;SDS011;10207;50.942;6.900;2023-03-31T16:13:32;1.13;;;0.50;;
20095;SDS011;10207;50.942;6.900;2023-03-31T16:15:59;3.33;;;1.20;;
20095;SDS011;10207;50.942;6.900;2023-03-31T16:20:53;3.22;;;0.57;;
20095;SDS011;10207;50.942;6.900;2023-03-31T16:23:22;6.10;;;1.00;;
20095;SDS011;10207;50.942;6.900;2023-03-31T16:25:49;7.22;;;1.05;;
20095;SDS011;10207;50.942;6.900;2023-03-31T16:28:18;4.97;;;2.20;;
20095;SDS011;10207;50.942;6.900;2023-03-31T16:30:45;6.60;;;1.17;;
20095;SDS011;10207;50.942;6.900;2023-03-31T16:33:12;3.55;;;0.75;;
20095;SDS011;10207;50.942;6.900;2023-03-31T16:35:40;4.40;;;0.98;;
20095;SDS011;10207;50.942;6.900;2023-03-31T16:38:07;8.80;;;0.98;;
20095;SDS011;10207;50.942;6.900;2023-03-31T16:40:35;2.78;;;1.00;;
20095;SDS011;10207;50.942;6.900;2023-03-31T16:43:09;4.90;;;0.73;;
20095;SDS011;10207;50.942;6.900;2023-03-31T16:45:35;5.78;;;0.70;;
20095;SDS011;10207;50.942;6.900;2023-03-31T16:48:01;5.15;;;0.80;;
20095;SDS011;10207;50.942;6.900;2023-03-31T16:50:27;4.70;;;1.33;;
20095;SDS011;10207;50.942;6.900;2023-03-31T16:52:53;3.10;;;0.73;;
20095;SDS011;10207;50.942;6.900;2023-03-31T16:55:19;3.05;;;0.90;;
20095;SDS011;10207;50.942;6.900;2023-03-31T16:57:46;3.13;;;0.98;;
20095;SDS011;10207;50.942;6.900;2023-03-31T17:00:13;3.95;;;0.80;;
20095;SDS011;10207;50.942;6.900;2023-03-31T17:02:39;3.20;;;0.65;;
20095;SDS011;10207;50.942;6.900;2023-03-31T17:05:05;2.65;;;0.60;;
20095;SDS011;10207;50.942;6.900;2023-03-31T17:07:31;5.13;;;0.50;;
20095;SDS011;10207;50.942;6.900;2023-03-31T17:09:57;5.00;;;1.10;;
20095;SDS011;10207;50.942;6.900;2023-03-31T17:12:23;1.20;;;0.40;;
20095;SDS011;10207;50.942;6.900;2023-03-31T17:14:49;5.38;;;0.63;;
20095;SDS011;10207;50.942;6.900;2023-03-31T17:17:15;2.85;;;0.52;;
20095;SDS011;10207;50.942;6.900;2023-03-31T17:19:41;2.72;;;0.55;;
20095;SDS011;10207;50.942;6.900;2023-03-31T17:22:07;2.78;;;0.55;;
20095;SDS011;10207;50.942;6.900;2023-03-31T17:24:33;1.05;;;0.30;;
20095;SDS011;10207;50.942;6.900;2023-03-31T17:26:59;2.70;;;0.45;;
20095;SDS011;10207;50.942;6.900;2023-03-31T17:29:26;4.18;;;0.38;;
20095;SDS011;10207;50.942;6.900;2023-03-31T17:31:53;1.85;;;0.60;;
20095;SDS011;10207;50.942;6.900;2023-03-31T17:34:19;6.55;;;0.77;;